createdAt,value
2023-04-15T00:00:23.671Z,23.80
2023-04-15T00:01:23.670Z,23.70
2023-04-15T00:02:23.829Z,27.00
2023-04-15T00:03:24.777Z,23.90
2023-04-15T00:04:23.641Z,23.20
2023-04-15T00:05:23.581Z,26.40
2023-04-15T00:06:23.568Z,25.20
2023-04-15T00:07:23.548Z,26.20
2023-04-15T00:08:24.506Z,25.90
2023-04-15T00:09:23.540Z,26.10
2023-04-15T00:10:23.542Z,25.40
2023-04-15T00:11:23.494Z,25.60
2023-04-15T00:12:23.520Z,25.70
2023-04-15T00:13:24.448Z,26.40
2023-04-15T00:14:23.469Z,24.70
2023-04-15T00:15:23.507Z,25.10
2023-04-15T00:16:23.530Z,23.70
2023-04-15T00:17:23.500Z,24.80
2023-04-15T00:18:23.432Z,25.20
2023-04-15T00:19:24.383Z,28.00
2023-04-15T00:20:23.404Z,26.70
2023-04-15T00:21:23.404Z,25.40
2023-04-15T00:22:23.376Z,24.10
2023-04-15T00:23:23.376Z,24.60
2023-04-15T00:24:24.308Z,25.90
2023-04-15T00:25:23.334Z,22.40
2023-04-15T00:26:23.320Z,25.60
2023-04-15T00:27:23.322Z,26.30
2023-04-15T00:28:23.300Z,25.90
2023-04-15T00:29:23.295Z,28.00
2023-04-15T00:30:24.222Z,27.40
2023-04-15T00:31:23.486Z,26.90
2023-04-15T00:32:23.354Z,26.20
2023-04-15T00:33:23.238Z,26.90
2023-04-15T00:34:23.262Z,28.70
2023-04-15T00:35:23.198Z,27.90
2023-04-15T00:36:24.149Z,25.50
2023-04-15T00:37:23.177Z,26.80
2023-04-15T00:38:23.185Z,26.60
2023-04-15T00:39:23.193Z,27.50
2023-04-15T00:40:23.174Z,26.90
2023-04-15T00:41:23.173Z,27.20
2023-04-15T00:42:24.068Z,27.80
2023-04-15T00:43:23.128Z,27.00
2023-04-15T00:44:23.126Z,25.20
2023-04-15T00:45:23.100Z,28.80
2023-04-15T00:46:23.101Z,28.40
2023-04-15T00:47:24.062Z,26.20
2023-04-15T00:48:23.046Z,27.80
2023-04-15T00:49:23.031Z,26.40
2023-04-15T00:50:23.147Z,26.80
2023-04-15T00:51:23.018Z,28.50
2023-04-15T00:52:22.991Z,29.30
2023-04-15T00:53:23.923Z,26.90
2023-04-15T00:54:22.966Z,28.20
2023-04-15T00:55:23.101Z,27.90
2023-04-15T00:56:22.979Z,29.70
2023-04-15T00:57:22.916Z,27.10
2023-04-15T00:58:22.907Z,29.30
2023-04-15T00:59:23.834Z,29.80
2023-04-15T01:00:22.893Z,27.80
2023-04-15T01:01:22.939Z,28.60
2023-04-15T01:02:22.978Z,29.40
2023-04-15T01:03:23.110Z,27.60
2023-04-15T01:04:23.825Z,28.30
2023-04-15T01:05:22.834Z,28.10
2023-04-15T01:06:22.825Z,29.20
2023-04-15T01:07:22.828Z,32.20
2023-04-15T01:08:22.770Z,28.50
2023-04-15T01:09:22.772Z,29.00
2023-04-15T01:10:23.674Z,30.90
2023-04-15T01:11:22.757Z,29.90
2023-04-15T01:12:22.736Z,28.20
2023-04-15T01:13:22.707Z,29.30
2023-04-15T01:14:22.695Z,29.20
2023-04-15T01:15:23.644Z,27.20
2023-04-15T01:16:22.793Z,28.00
2023-04-15T01:17:22.732Z,28.80
2023-04-15T01:18:22.663Z,31.10
2023-04-15T01:19:22.650Z,30.20
2023-04-15T01:20:23.552Z,29.10
2023-04-15T01:21:22.647Z,28.60
2023-04-15T01:22:22.606Z,30.40
2023-04-15T01:23:22.587Z,29.60
2023-04-15T01:24:22.563Z,32.00
2023-04-15T01:25:22.573Z,29.00
2023-04-15T01:26:23.477Z,29.90
2023-04-15T01:27:22.548Z,30.90
2023-04-15T01:28:22.558Z,30.50
2023-04-15T01:29:22.525Z,30.70
2023-04-15T01:30:22.511Z,31.80
2023-04-15T01:31:23.451Z,31.00
2023-04-15T01:32:22.516Z,31.80
2023-04-15T01:33:22.522Z,31.20
2023-04-15T01:34:22.488Z,31.30
2023-04-15T01:35:22.426Z,33.20
2023-04-15T01:36:23.379Z,31.90
2023-04-15T01:37:22.408Z,31.50
2023-04-15T01:38:22.412Z,31.80
2023-04-15T01:39:22.390Z,31.00
2023-04-15T01:40:22.384Z,31.60
2023-04-15T01:41:23.321Z,31.90
2023-04-15T01:42:22.373Z,32.10
2023-04-15T01:43:22.369Z,31.60
2023-04-15T01:44:22.320Z,32.20
2023-04-15T01:45:22.304Z,31.10
2023-04-15T01:46:22.337Z,30.00
2023-04-15T01:47:23.257Z,32.60
2023-04-15T01:48:22.279Z,32.20
2023-04-15T01:49:22.276Z,32.50
2023-04-15T01:50:22.256Z,30.60
2023-04-15T01:51:22.252Z,32.30
2023-04-15T01:52:23.195Z,32.20
2023-04-15T01:53:22.216Z,31.70
2023-04-15T01:54:22.189Z,31.00
2023-04-15T01:55:22.178Z,34.30
2023-04-15T01:56:22.184Z,32.50
2023-04-15T01:57:22.184Z,29.70
2023-04-15T01:58:23.098Z,30.10
2023-04-15T01:59:22.158Z,31.60
2023-04-15T02:00:22.148Z,31.20
2023-04-15T02:01:22.203Z,33.80
2023-04-15T02:02:22.166Z,32.90
2023-04-15T02:03:22.214Z,31.00
2023-04-15T02:04:23.031Z,32.10
2023-04-15T02:05:22.075Z,29.80
2023-04-15T02:06:22.046Z,33.20
2023-04-15T02:07:22.058Z,31.60
2023-04-15T02:08:22.054Z,31.50
2023-04-15T02:09:22.025Z,35.50
2023-04-15T02:10:22.936Z,32.10
2023-04-15T02:11:21.989Z,36.20
2023-04-15T02:12:21.994Z,33.70
2023-04-15T02:13:21.955Z,32.90
2023-04-15T02:14:21.948Z,32.30
2023-04-15T02:15:21.943Z,32.80
2023-04-15T02:16:22.886Z,33.50
2023-04-15T02:17:21.986Z,32.60
2023-04-15T02:18:21.913Z,32.20
2023-04-15T02:19:21.886Z,30.90
2023-04-15T02:20:21.880Z,34.10
2023-04-15T02:21:21.887Z,33.50
2023-04-15T02:22:22.788Z,33.80
2023-04-15T02:23:21.859Z,34.10
2023-04-15T02:24:21.838Z,32.70
2023-04-15T02:25:21.842Z,33.20
2023-04-15T02:26:21.795Z,34.80
2023-04-15T02:27:21.785Z,34.10
2023-04-15T02:28:22.710Z,32.40
2023-04-15T02:29:21.753Z,30.80
2023-04-15T02:30:21.743Z,32.60
2023-04-15T02:31:21.803Z,32.00
2023-04-15T02:32:21.761Z,33.30
2023-04-15T02:33:21.789Z,32.50
2023-04-15T02:34:22.628Z,34.30
2023-04-15T02:35:21.659Z,33.20
2023-04-15T02:36:21.682Z,33.80
2023-04-15T02:37:21.655Z,32.00
2023-04-15T02:38:21.692Z,31.20
2023-04-15T02:39:21.624Z,30.50
2023-04-15T02:40:22.555Z,31.80
2023-04-15T02:41:21.603Z,33.20
2023-04-15T02:42:21.626Z,34.80
2023-04-15T02:43:21.611Z,35.20
2023-04-15T02:44:21.573Z,34.70
2023-04-15T02:45:21.558Z,35.70
2023-04-15T02:46:22.516Z,35.40
2023-04-15T02:47:21.537Z,33.40
2023-04-15T02:48:21.526Z,31.80
2023-04-15T02:49:21.529Z,32.40
2023-04-15T02:50:21.492Z,32.20
2023-04-15T02:51:21.490Z,34.90
2023-04-15T02:52:22.396Z,32.50
2023-04-15T02:53:21.464Z,33.20
2023-04-15T02:54:21.440Z,32.20
2023-04-15T02:55:21.432Z,31.10
2023-04-15T02:56:21.412Z,32.10
2023-04-15T02:57:22.366Z,33.80
2023-04-15T02:58:21.392Z,34.40
2023-04-15T02:59:21.382Z,34.80
2023-04-15T03:00:21.370Z,35.20
2023-04-15T03:01:21.376Z,32.50
2023-04-15T03:02:21.433Z,34.30
2023-04-15T03:03:22.366Z,33.00
2023-04-15T03:04:21.347Z,32.30
2023-04-15T03:05:21.319Z,31.50
2023-04-15T03:06:21.293Z,32.00
2023-04-15T03:07:21.255Z,31.00
2023-04-15T03:08:21.250Z,33.40
2023-04-15T03:09:22.186Z,33.40
2023-04-15T03:10:21.238Z,34.30
2023-04-15T03:11:21.229Z,32.00
2023-04-15T03:12:21.235Z,33.60
2023-04-15T03:13:21.187Z,31.20
2023-04-15T03:14:21.223Z,30.90
2023-04-15T03:15:22.109Z,30.20
2023-04-15T03:16:21.184Z,30.90
2023-04-15T03:17:21.190Z,32.50
2023-04-15T03:18:21.155Z,33.20
2023-04-15T03:19:21.124Z,32.70
2023-04-15T03:20:21.140Z,33.40
2023-04-15T03:21:22.046Z,31.70
2023-04-15T03:22:21.083Z,33.00
2023-04-15T03:23:21.065Z,33.30
2023-04-15T03:24:21.147Z,30.20
2023-04-15T03:25:21.098Z,32.10
2023-04-15T03:26:21.944Z,31.50
2023-04-15T03:27:21.015Z,31.80
2023-04-15T03:28:21.022Z,30.70
2023-04-15T03:29:20.980Z,32.30
2023-04-15T03:30:20.991Z,32.00
2023-04-15T03:31:21.888Z,31.40
2023-04-15T03:32:20.996Z,31.90
2023-04-15T03:33:20.961Z,31.00
2023-04-15T03:34:20.940Z,30.20
2023-04-15T03:35:20.943Z,31.70
2023-04-15T03:36:20.938Z,31.80
2023-04-15T03:37:21.805Z,32.40
2023-04-15T03:38:20.883Z,30.00
2023-04-15T03:39:20.858Z,31.60
2023-04-15T03:40:20.878Z,31.60
2023-04-15T03:41:20.887Z,30.60
2023-04-15T03:42:20.818Z,29.80
2023-04-15T03:43:21.748Z,31.60
2023-04-15T03:44:20.793Z,33.80
2023-04-15T03:45:20.788Z,29.80
2023-04-15T03:46:20.832Z,30.80
2023-04-15T03:47:20.800Z,30.90
2023-04-15T03:48:21.727Z,31.90
2023-04-15T03:49:20.724Z,30.00
2023-04-15T03:50:20.723Z,30.30
2023-04-15T03:51:20.740Z,31.60
2023-04-15T03:52:20.710Z,31.20
2023-04-15T03:53:20.662Z,30.80
2023-04-15T03:54:21.616Z,29.90
2023-04-15T03:55:20.668Z,29.90
2023-04-15T03:56:20.650Z,31.20
2023-04-15T03:57:20.631Z,29.60
2023-04-15T03:58:20.621Z,30.60
2023-04-15T03:59:21.552Z,27.70
2023-04-15T04:00:20.605Z,29.60
2023-04-15T04:01:20.635Z,29.70
2023-04-15T04:02:20.654Z,29.60
2023-04-15T04:03:20.646Z,30.30
2023-04-15T04:04:20.656Z,28.30
2023-04-15T04:05:21.469Z,28.70
2023-04-15T04:06:20.489Z,28.30
2023-04-15T04:07:20.514Z,30.60
2023-04-15T04:08:20.501Z,28.50
2023-04-15T04:09:20.476Z,30.10
2023-04-15T04:10:20.474Z,29.10
2023-04-15T04:11:21.375Z,28.30
2023-04-15T04:12:20.439Z,29.70
2023-04-15T04:13:20.457Z,27.60
2023-04-15T04:14:20.427Z,27.20
2023-04-15T04:15:20.403Z,29.90
2023-04-15T04:16:21.450Z,29.00
2023-04-15T04:17:20.376Z,29.90
2023-04-15T04:18:20.354Z,29.00
2023-04-15T04:19:20.348Z,29.60
2023-04-15T04:20:20.349Z,28.30
2023-04-15T04:21:21.278Z,28.70
2023-04-15T04:22:20.340Z,27.50
2023-04-15T04:23:20.308Z,28.70
2023-04-15T04:24:20.313Z,28.20
2023-04-15T04:25:20.278Z,27.70
2023-04-15T04:26:20.273Z,26.70
2023-04-15T04:27:21.179Z,27.90
2023-04-15T04:28:20.236Z,28.80
2023-04-15T04:29:20.242Z,28.50
2023-04-15T04:30:20.233Z,28.00
2023-04-15T04:31:20.273Z,28.40
2023-04-15T04:32:21.158Z,27.00
2023-04-15T04:33:20.197Z,26.60
2023-04-15T04:34:20.161Z,27.50
2023-04-15T04:35:20.152Z,26.40
2023-04-15T04:36:20.118Z,25.80
2023-04-15T04:37:20.149Z,28.10
2023-04-15T04:38:21.023Z,27.10
2023-04-15T04:39:20.086Z,26.60
2023-04-15T04:40:20.067Z,26.10
2023-04-15T04:41:20.061Z,26.30
2023-04-15T04:42:20.061Z,25.30
2023-04-15T04:43:20.973Z,28.60
2023-04-15T04:44:20.038Z,27.00
2023-04-15T04:45:20.033Z,25.40
2023-04-15T04:46:20.031Z,25.40
2023-04-15T04:47:19.997Z,25.90
2023-04-15T04:48:20.905Z,27.00
2023-04-15T04:49:19.957Z,24.90
2023-04-15T04:50:19.960Z,25.70
2023-04-15T04:51:19.937Z,25.00
2023-04-15T04:52:19.934Z,25.00
2023-04-15T04:53:20.873Z,25.80
2023-04-15T04:54:19.906Z,24.00
2023-04-15T04:55:19.873Z,23.50
2023-04-15T04:56:19.873Z,22.90
2023-04-15T04:57:19.845Z,24.20
2023-04-15T04:58:19.849Z,23.50
2023-04-15T04:59:20.768Z,23.90
2023-04-15T05:00:19.805Z,24.90
2023-04-15T05:01:19.835Z,24.00
2023-04-15T05:02:19.945Z,24.30
2023-04-15T05:03:20.011Z,23.20
2023-04-15T05:04:20.676Z,25.00
2023-04-15T05:05:19.782Z,24.60
2023-04-15T05:06:19.782Z,23.90
2023-04-15T05:07:19.736Z,24.20
2023-04-15T05:08:19.744Z,22.80
2023-04-15T05:09:19.724Z,21.40
2023-04-15T05:10:20.603Z,24.10
2023-04-15T05:11:19.690Z,22.40
2023-04-15T05:12:19.719Z,22.90
2023-04-15T05:13:19.665Z,22.20
2023-04-15T05:14:20.509Z,22.60
2023-04-15T05:15:19.618Z,21.60
2023-04-15T05:16:20.639Z,24.70
2023-04-15T05:17:19.624Z,24.30
2023-04-15T05:18:19.588Z,23.70
2023-04-15T05:19:19.593Z,22.70
2023-04-15T05:20:19.576Z,23.20
2023-04-15T05:21:19.603Z,21.90
2023-04-15T05:22:20.517Z,22.40
2023-04-15T05:23:19.528Z,23.10
2023-04-15T05:24:19.500Z,20.90
2023-04-15T05:25:19.533Z,21.50
2023-04-15T05:26:19.496Z,21.80
2023-04-15T05:27:20.406Z,20.50
2023-04-15T05:28:19.474Z,21.30
2023-04-15T05:29:19.460Z,21.80
2023-04-15T05:30:19.443Z,21.90
2023-04-15T05:31:19.529Z,23.10
2023-04-15T05:32:19.451Z,22.00
2023-04-15T05:33:20.358Z,21.40
2023-04-15T05:34:19.412Z,21.40
2023-04-15T05:35:19.375Z,21.40
2023-04-15T05:36:19.407Z,20.80
2023-04-15T05:37:19.355Z,21.60
2023-04-15T05:38:20.260Z,20.00
2023-04-15T05:39:19.351Z,20.90
2023-04-15T05:40:19.350Z,19.80
2023-04-15T05:41:19.958Z,21.20
2023-04-15T05:42:19.277Z,19.60
2023-04-15T05:43:19.278Z,19.90
2023-04-15T05:44:20.205Z,19.70
2023-04-15T05:45:19.270Z,19.60
2023-04-15T05:46:19.248Z,18.70
2023-04-15T05:47:19.249Z,19.40
2023-04-15T05:48:19.226Z,20.70
2023-04-15T05:49:19.214Z,19.30
2023-04-15T05:50:20.122Z,18.40
2023-04-15T05:51:19.175Z,19.10
2023-04-15T05:52:19.175Z,21.00
2023-04-15T05:53:19.154Z,20.50
2023-04-15T05:54:20.302Z,19.60
2023-04-15T05:55:20.280Z,17.70
2023-04-15T05:56:19.156Z,18.90
2023-04-15T05:57:19.150Z,18.40
2023-04-15T05:58:19.069Z,18.50
2023-04-15T05:59:19.068Z,17.40
2023-04-15T06:00:19.980Z,16.80
2023-04-15T06:01:19.052Z,17.80
2023-04-15T06:02:19.175Z,18.00
2023-04-15T06:03:19.073Z,17.70
2023-04-15T06:04:19.186Z,18.00
2023-04-15T06:05:19.046Z,18.60
2023-04-15T06:06:19.963Z,17.00
2023-04-15T06:07:18.953Z,17.30
2023-04-15T06:08:18.995Z,18.00
2023-04-15T06:09:18.979Z,17.30
2023-04-15T06:10:18.938Z,16.30
2023-04-15T06:11:18.958Z,15.70
2023-04-15T06:12:19.838Z,18.20
2023-04-15T06:13:18.908Z,16.20
2023-04-15T06:14:18.896Z,16.70
2023-04-15T06:15:18.893Z,15.50
2023-04-15T06:16:18.903Z,16.30
2023-04-15T06:17:18.899Z,16.30
2023-04-15T06:18:19.761Z,16.30
2023-04-15T06:19:19.144Z,15.60
2023-04-15T06:20:18.827Z,14.90
2023-04-15T06:21:18.791Z,16.80
2023-04-15T06:22:18.782Z,16.10
2023-04-15T06:23:18.773Z,16.60
2023-04-15T06:24:19.716Z,15.30
2023-04-15T06:25:18.756Z,15.10
2023-04-15T06:26:18.728Z,15.60
2023-04-15T06:27:18.720Z,15.70
2023-04-15T06:28:18.715Z,14.30
2023-04-15T06:29:19.647Z,14.50
2023-04-15T06:30:18.723Z,14.60
2023-04-15T06:31:18.716Z,15.00
2023-04-15T06:32:18.647Z,14.00
2023-04-15T06:33:18.650Z,14.20
2023-04-15T06:34:18.627Z,14.10
2023-04-15T06:35:19.554Z,14.80
2023-04-15T06:36:18.613Z,13.80
2023-04-15T06:37:18.608Z,14.50
2023-04-15T06:38:18.574Z,14.90
2023-04-15T06:39:18.554Z,15.50
2023-04-15T06:40:18.603Z,16.10
2023-04-15T06:41:19.493Z,19.50
2023-04-15T06:42:18.543Z,21.30
2023-04-15T06:43:18.543Z,17.20
2023-04-15T06:44:18.496Z,19.60
2023-04-15T06:45:18.490Z,14.30
2023-04-15T06:46:19.583Z,14.10
2023-04-15T06:47:18.499Z,13.70
2023-04-15T06:48:18.451Z,14.10
2023-04-15T06:49:18.457Z,13.10
2023-04-15T06:50:18.461Z,13.90
2023-04-15T06:51:19.350Z,13.40
2023-04-15T06:52:18.410Z,13.10
2023-04-15T06:53:18.413Z,12.90
2023-04-15T06:54:18.383Z,13.00
2023-04-15T06:55:18.355Z,12.60
2023-04-15T06:56:18.352Z,12.90
2023-04-15T06:57:19.295Z,12.60
2023-04-15T06:58:18.348Z,13.60
2023-04-15T06:59:18.323Z,12.80
2023-04-15T07:00:18.288Z,12.30
2023-04-15T07:01:18.353Z,12.40
2023-04-15T07:02:19.325Z,13.10
2023-04-15T07:03:18.301Z,12.70
2023-04-15T07:04:18.273Z,11.60
2023-04-15T07:05:18.238Z,12.00
2023-04-15T07:06:18.235Z,11.30
2023-04-15T07:07:19.149Z,12.30
2023-04-15T07:08:18.201Z,11.80
2023-04-15T07:09:18.192Z,10.90
2023-04-15T07:10:18.182Z,12.10
2023-04-15T07:11:18.144Z,11.60
2023-04-15T07:12:18.162Z,11.80
2023-04-15T07:13:19.074Z,11.10
2023-04-15T07:14:18.167Z,10.70
2023-04-15T07:15:18.114Z,10.90
2023-04-15T07:16:18.121Z,11.20
2023-04-15T07:17:18.110Z,11.70
2023-04-15T07:18:19.018Z,11.70
2023-04-15T07:19:18.061Z,10.70
2023-04-15T07:20:18.047Z,9.80
2023-04-15T07:21:18.049Z,11.30
2023-04-15T07:22:18.040Z,10.40
2023-04-15T07:23:18.013Z,10.30
2023-04-15T07:24:18.937Z,11.00
2023-04-15T07:25:18.364Z,10.70
2023-04-15T07:26:17.950Z,10.30
2023-04-15T07:27:17.980Z,10.10
2023-04-15T07:28:17.927Z,11.50
2023-04-15T07:29:18.868Z,9.90
2023-04-15T07:30:17.930Z,10.90
2023-04-15T07:31:17.974Z,10.80
2023-04-15T07:32:17.873Z,10.00
2023-04-15T07:33:17.898Z,10.20
2023-04-15T07:34:18.803Z,11.50
2023-04-15T07:35:17.848Z,11.20
2023-04-15T07:36:17.841Z,10.30
2023-04-15T07:37:17.817Z,10.40
2023-04-15T07:38:17.810Z,10.80
2023-04-15T07:39:18.703Z,10.60
2023-04-15T07:40:17.780Z,10.10
2023-04-15T07:41:17.783Z,10.10
2023-04-15T07:42:17.877Z,10.60
2023-04-15T07:43:17.731Z,10.50
2023-04-15T07:44:18.646Z,11.60
2023-04-15T07:45:17.774Z,10.50
2023-04-15T07:46:17.761Z,10.50
2023-04-15T07:47:17.762Z,11.00
2023-04-15T07:48:17.683Z,10.40
2023-04-15T07:49:17.692Z,11.60
2023-04-15T07:50:18.585Z,10.90
2023-04-15T07:51:17.674Z,9.70
2023-04-15T07:52:17.622Z,11.20
2023-04-15T07:53:17.614Z,11.40
2023-04-15T07:54:17.635Z,10.20
2023-04-15T07:55:18.517Z,11.20
2023-04-15T07:56:17.603Z,12.20
2023-04-15T07:57:17.581Z,12.20
2023-04-15T07:58:17.577Z,10.80
2023-04-15T07:59:17.547Z,12.00
2023-04-15T08:00:18.428Z,11.30
2023-04-15T08:01:17.516Z,12.60
2023-04-15T08:02:17.620Z,11.30
2023-04-15T08:03:17.559Z,11.70
2023-04-15T08:04:17.582Z,11.50
2023-04-15T08:05:17.509Z,11.40
2023-04-15T08:06:18.368Z,10.50
2023-04-15T08:07:17.416Z,12.00
2023-04-15T08:08:17.480Z,12.00
2023-04-15T08:09:17.408Z,11.40
2023-04-15T08:10:17.384Z,11.30
2023-04-15T08:11:17.379Z,12.00
2023-04-15T08:12:18.291Z,11.00
2023-04-15T08:13:17.380Z,12.00
2023-04-15T08:14:17.353Z,11.30
2023-04-15T08:15:17.376Z,12.00
2023-04-15T08:16:17.336Z,12.20
2023-04-15T08:17:17.325Z,12.40
2023-04-15T08:18:18.223Z,11.70
2023-04-15T08:19:17.280Z,11.90
2023-04-15T08:20:17.234Z,10.90
2023-04-15T08:21:17.237Z,11.90
2023-04-15T08:22:18.186Z,12.20
2023-04-15T08:23:17.261Z,11.60
2023-04-15T08:24:18.140Z,12.00
2023-04-15T08:25:17.183Z,11.20
2023-04-15T08:26:17.168Z,12.60
2023-04-15T08:27:17.188Z,12.20
2023-04-15T08:28:17.163Z,11.60
2023-04-15T08:29:18.117Z,12.70
2023-04-15T08:30:17.125Z,12.20
2023-04-15T08:31:17.122Z,11.70
2023-04-15T08:32:17.109Z,13.40
2023-04-15T08:33:17.073Z,11.90
2023-04-15T08:34:17.058Z,13.00
2023-04-15T08:35:18.000Z,13.70
2023-04-15T08:36:17.056Z,13.20
2023-04-15T08:37:17.030Z,13.10
2023-04-15T08:38:17.028Z,13.60
2023-04-15T08:39:17.021Z,13.00
2023-04-15T08:40:17.015Z,13.70
2023-04-15T08:41:17.918Z,13.70
2023-04-15T08:42:16.963Z,13.50
2023-04-15T08:43:16.961Z,13.80
2023-04-15T08:44:16.945Z,13.30
2023-04-15T08:45:16.915Z,12.90
2023-04-15T08:46:16.934Z,13.90
2023-04-15T08:47:17.832Z,13.60
2023-04-15T08:48:16.921Z,13.30
2023-04-15T08:49:16.951Z,14.80
2023-04-15T08:50:16.847Z,25.00
2023-04-15T08:51:16.867Z,20.40
2023-04-15T08:52:17.768Z,14.40
2023-04-15T08:53:16.849Z,15.40
2023-04-15T08:54:16.819Z,13.60
2023-04-15T08:55:16.815Z,13.50
2023-04-15T08:56:17.031Z,13.60
2023-04-15T08:57:16.798Z,12.90
2023-04-15T08:58:17.711Z,13.80
2023-04-15T08:59:16.740Z,13.30
2023-04-15T09:00:16.741Z,13.10
2023-04-15T09:01:16.751Z,12.90
2023-04-15T09:02:16.725Z,13.60
2023-04-15T09:03:16.789Z,14.10
2023-04-15T09:04:17.641Z,14.20
2023-04-15T09:05:16.682Z,15.60
2023-04-15T09:06:16.788Z,13.00
2023-04-15T09:07:16.667Z,13.60
2023-04-15T09:08:16.665Z,14.40
2023-04-15T09:09:16.630Z,13.40
2023-04-15T09:10:17.551Z,14.30
2023-04-15T09:11:17.400Z,13.00
2023-04-15T09:12:16.580Z,14.40
2023-04-15T09:13:16.611Z,13.80
2023-04-15T09:14:16.544Z,14.20
2023-04-15T09:15:16.543Z,13.60
2023-04-15T09:16:17.534Z,14.00
2023-04-15T09:17:16.508Z,13.60
2023-04-15T09:18:16.503Z,13.70
2023-04-15T09:19:16.476Z,13.40
2023-04-15T09:20:16.500Z,13.70
2023-04-15T09:21:16.504Z,12.50
2023-04-15T09:22:17.366Z,12.60
2023-04-15T09:23:16.442Z,12.30
2023-04-15T09:24:16.427Z,14.30
2023-04-15T09:25:16.408Z,13.20
2023-04-15T09:26:16.406Z,13.50
2023-04-15T09:27:17.446Z,14.80
2023-04-15T09:28:16.678Z,13.60
2023-04-15T09:29:16.377Z,12.50
2023-04-15T09:30:16.374Z,12.90
2023-04-15T09:31:16.393Z,12.50
2023-04-15T09:32:16.336Z,12.90
2023-04-15T09:33:17.284Z,12.90
2023-04-15T09:34:16.284Z,14.00
2023-04-15T09:35:16.271Z,12.90
2023-04-15T09:36:16.278Z,12.90
2023-04-15T09:37:31.294Z,12.30
2023-04-15T09:38:17.755Z,14.00
2023-04-15T09:39:17.151Z,13.60
2023-04-15T09:40:16.205Z,13.50
2023-04-15T09:41:16.301Z,13.10
2023-04-15T09:42:16.189Z,13.40
2023-04-15T09:43:16.166Z,13.30
2023-04-15T09:44:17.094Z,13.80
2023-04-15T09:45:16.172Z,13.60
2023-04-15T09:46:16.194Z,13.70
2023-04-15T09:47:16.130Z,13.00
2023-04-15T09:48:16.103Z,13.80
2023-04-15T09:49:17.044Z,13.20
2023-04-15T09:50:16.092Z,12.30
2023-04-15T09:51:16.097Z,13.70
2023-04-15T09:52:16.058Z,13.00
2023-04-15T09:53:16.021Z,13.20
2023-04-15T09:54:17.024Z,13.00
2023-04-15T09:55:16.287Z,13.00
2023-04-15T09:56:16.003Z,14.50
2023-04-15T09:57:16.214Z,13.50
2023-04-15T09:58:16.058Z,14.10
2023-04-15T09:59:16.013Z,13.90
2023-04-15T10:00:16.921Z,13.20
2023-04-15T10:01:15.942Z,13.60
2023-04-15T10:02:15.998Z,13.80
2023-04-15T10:03:16.069Z,12.90
2023-04-15T10:04:16.018Z,13.50
2023-04-15T10:05:15.888Z,12.60
2023-04-15T10:06:16.815Z,14.10
2023-04-15T10:07:15.891Z,13.20
2023-04-15T10:08:15.865Z,12.80
2023-04-15T10:09:15.852Z,13.30
2023-04-15T10:10:15.907Z,12.70
2023-04-15T10:11:15.838Z,12.70
2023-04-15T10:12:16.750Z,12.90
2023-04-15T10:13:15.826Z,13.30
2023-04-15T10:14:15.787Z,13.60
2023-04-15T10:15:15.759Z,13.10
2023-04-15T10:16:15.774Z,12.40
2023-04-15T10:17:15.735Z,14.20
2023-04-15T10:18:16.683Z,14.00
2023-04-15T10:19:15.738Z,13.20
2023-04-15T10:20:15.745Z,12.80
2023-04-15T10:21:15.694Z,13.70
2023-04-15T10:22:15.697Z,13.00
2023-04-15T10:23:15.681Z,13.50
2023-04-15T10:24:16.572Z,13.70
2023-04-15T10:25:15.665Z,13.00
2023-04-15T10:26:15.642Z,12.80
2023-04-15T10:27:15.635Z,12.70
2023-04-15T10:28:15.639Z,14.10
2023-04-15T10:29:15.588Z,14.60
2023-04-15T10:30:16.496Z,13.40
2023-04-15T10:31:15.617Z,13.20
2023-04-15T10:32:15.551Z,14.00
2023-04-15T10:33:15.556Z,13.30
2023-04-15T10:34:15.634Z,13.20
2023-04-15T10:35:15.529Z,13.10
2023-04-15T10:36:16.425Z,15.10
2023-04-15T10:37:15.526Z,13.10
2023-04-15T10:38:15.493Z,13.70
2023-04-15T10:39:15.567Z,13.90
2023-04-15T10:40:15.425Z,13.20
2023-04-15T10:41:17.067Z,13.40
2023-04-15T10:42:16.385Z,13.90
2023-04-15T10:43:15.409Z,13.70
2023-04-15T10:44:15.379Z,14.60
2023-04-15T10:45:15.393Z,13.70
2023-04-15T10:46:15.370Z,14.40
2023-04-15T10:47:15.364Z,13.80
2023-04-15T10:48:16.293Z,13.60
2023-04-15T10:49:15.360Z,12.80
2023-04-15T10:50:15.362Z,13.50
2023-04-15T10:51:15.336Z,13.20
2023-04-15T10:52:15.291Z,14.30
2023-04-15T10:53:16.212Z,13.70
2023-04-15T10:54:15.310Z,13.70
2023-04-15T10:55:15.246Z,13.50
2023-04-15T10:56:15.279Z,13.80
2023-04-15T10:57:15.237Z,13.20
2023-04-15T10:58:16.138Z,14.40
2023-04-15T10:59:15.197Z,14.00
2023-04-15T11:00:15.217Z,13.40
2023-04-15T11:01:15.177Z,13.20
2023-04-15T11:02:15.279Z,13.40
2023-04-15T11:03:15.237Z,13.20
2023-04-15T11:04:16.187Z,12.10
2023-04-15T11:05:15.151Z,13.20
2023-04-15T11:06:16.166Z,12.60
2023-04-15T11:07:15.122Z,12.60
2023-04-15T11:08:15.101Z,12.20
2023-04-15T11:09:16.003Z,13.30
2023-04-15T11:10:15.064Z,12.60
2023-04-15T11:11:15.051Z,11.60
2023-04-15T11:12:15.026Z,12.30
2023-04-15T11:13:15.034Z,11.50
2023-04-15T11:14:15.949Z,11.70
2023-04-15T11:15:15.034Z,12.40
2023-04-15T11:16:15.041Z,11.50
2023-04-15T11:17:14.986Z,12.60
2023-04-15T11:18:15.004Z,12.40
2023-04-15T11:19:15.905Z,13.60
2023-04-15T11:20:14.940Z,12.50
2023-04-15T11:21:15.169Z,12.90
2023-04-15T11:22:14.910Z,13.70
2023-04-15T11:23:15.730Z,13.20
2023-04-15T11:24:14.903Z,13.20
2023-04-15T11:25:15.791Z,14.60
2023-04-15T11:26:14.866Z,13.60
2023-04-15T11:27:14.869Z,12.90
2023-04-15T11:28:14.856Z,14.10
2023-04-15T11:29:14.831Z,14.80
2023-04-15T11:30:15.728Z,14.80
2023-04-15T11:31:14.819Z,13.00
2023-04-15T11:32:14.828Z,14.80
2023-04-15T11:33:14.787Z,13.70
2023-04-15T11:34:14.762Z,13.40
2023-04-15T11:35:15.678Z,12.50
2023-04-15T11:36:14.772Z,12.60
2023-04-15T11:37:14.712Z,13.10
2023-04-15T11:38:14.719Z,13.20
2023-04-15T11:39:14.699Z,13.60
2023-04-15T11:40:15.593Z,13.70
2023-04-15T11:41:14.660Z,13.90
2023-04-15T11:42:14.657Z,14.00
2023-04-15T11:43:14.647Z,13.10
2023-04-15T11:44:14.635Z,13.30
2023-04-15T11:45:15.536Z,12.70
2023-04-15T11:46:14.665Z,13.40
2023-04-15T11:47:14.592Z,13.20
2023-04-15T11:48:14.619Z,13.80
2023-04-15T11:49:14.563Z,15.00
2023-04-15T11:50:14.544Z,14.60
2023-04-15T11:51:15.491Z,13.40
2023-04-15T11:52:14.495Z,13.50
2023-04-15T11:53:14.493Z,14.50
2023-04-15T11:54:14.498Z,13.30
2023-04-15T11:55:14.513Z,13.70
2023-04-15T11:57:12.897Z,13.60
2023-04-15T11:58:14.430Z,12.60
2023-04-15T11:59:12.854Z,13.90
2023-04-15T12:00:12.801Z,13.20
2023-04-15T12:01:12.892Z,12.60
2023-04-15T12:02:13.869Z,14.10
2023-04-15T12:03:12.938Z,14.40
2023-04-15T12:04:13.027Z,13.70
2023-04-15T12:05:12.800Z,14.00
2023-04-15T12:06:12.762Z,13.00
2023-04-15T12:07:13.727Z,14.30
2023-04-15T12:08:12.788Z,12.90
2023-04-15T12:09:12.756Z,13.00
2023-04-15T12:10:12.723Z,12.70
2023-04-15T12:11:12.767Z,13.80
2023-04-15T12:12:12.702Z,12.40
2023-04-15T12:13:13.684Z,15.10
2023-04-15T12:14:12.692Z,13.10
2023-04-15T12:15:12.730Z,13.00
2023-04-15T12:16:12.676Z,13.00
2023-04-15T12:17:12.680Z,12.90
2023-04-15T12:18:13.566Z,13.10
2023-04-15T12:19:12.612Z,13.90
2023-04-15T12:20:12.623Z,12.50
2023-04-15T12:21:12.562Z,12.60
2023-04-15T12:22:12.581Z,11.90
2023-04-15T12:23:12.578Z,13.30
2023-04-15T12:24:13.502Z,12.60
2023-04-15T12:25:12.524Z,13.30
2023-04-15T12:26:12.549Z,13.40
2023-04-15T12:27:12.497Z,12.70
2023-04-15T12:28:12.531Z,12.00
2023-04-15T12:29:12.472Z,12.50
2023-04-15T12:30:13.396Z,12.80
2023-04-15T12:31:12.457Z,11.90
2023-04-15T12:32:12.509Z,12.50
2023-04-15T12:33:12.417Z,14.00
2023-04-15T12:34:12.552Z,12.90
2023-04-15T12:35:12.431Z,12.80
2023-04-15T12:36:13.374Z,12.90
2023-04-15T12:37:12.434Z,11.80
2023-04-15T12:38:12.338Z,12.10
2023-04-15T12:39:12.326Z,13.20
2023-04-15T12:40:12.308Z,12.50
2023-04-15T12:41:12.358Z,12.60
2023-04-15T12:42:13.295Z,12.80
2023-04-15T12:43:12.349Z,12.50
2023-04-15T12:44:12.309Z,12.00
2023-04-15T12:45:12.302Z,12.30
2023-04-15T12:46:12.404Z,12.50
2023-04-15T12:47:12.263Z,10.70
2023-04-15T12:48:13.268Z,12.80
2023-04-15T12:49:12.316Z,12.00
2023-04-15T12:50:12.326Z,12.90
2023-04-15T12:51:12.332Z,12.40
2023-04-15T12:52:12.180Z,12.30
2023-04-15T12:53:12.145Z,11.70